sensor_id;sensor_type;location;lat;lon;timestamp;P1;durP1;ratioP1;P2;durP2;ratioP2
57087;SDS011;42965;52.846;6.614;2023-04-15T00:01:29;10.70;;;6.07;;
57087;SDS011;42965;52.846;6.614;2023-04-15T00:03:58;9.05;;;5.72;;
57087;SDS011;42965;52.846;6.614;2023-04-15T00:06:24;9.43;;;5.60;;
57087;SDS011;42965;52.846;6.614;2023-04-15T00:08:50;8.40;;;5.70;;
57087;SDS011;42965;52.846;6.614;2023-04-15T00:11:17;12.98;;;6.90;;
57087;SDS011;42965;52.846;6.614;2023-04-15T00:13:44;11.70;;;5.68;;
57087;SDS011;42965;52.846;6.614;2023-04-15T00:16:10;10.63;;;6.07;;
57087;SDS011;42965;52.846;6.614;2023-04-15T00:18:37;12.43;;;5.82;;
57087;SDS011;42965;52.846;6.614;2023-04-15T00:21:03;10.35;;;6.55;;
57087;SDS011;42965;52.846;6.614;2023-04-15T00:23:30;10.95;;;6.32;;
57087;SDS011;42965;52.846;6.614;2023-04-15T00:25:56;16.52;;;7.35;;
57087;SDS011;42965;52.846;6.614;2023-04-15T00:28:22;11.18;;;6.43;;
57087;SDS011;42965;52.846;6.614;2023-04-15T00:30:49;9.32;;;6.63;;
57087;SDS011;42965;52.846;6.614;2023-04-15T00:33:15;13.50;;;6.50;;
57087;SDS011;42965;52.846;6.614;2023-04-15T00:35:42;12.82;;;7.15;;
57087;SDS011;42965;52.846;6.614;2023-04-15T00:38:08;14.25;;;6.55;;
57087;SDS011;42965;52.846;6.614;2023-04-15T00:40:34;9.85;;;6.75;;
57087;SDS011;42965;52.846;6.614;2023-04-15T00:43:01;13.32;;;6.78;;
57087;SDS011;42965;52.846;6.614;2023-04-15T00:45:29;10.38;;;7.15;;
57087;SDS011;42965;52.846;6.614;2023-04-15T00:47:55;10.82;;;6.65;;
57087;SDS011;42965;52.846;6.614;2023-04-15T00:50:21;13.73;;;6.78;;
57087;SDS011;42965;52.846;6.614;2023-04-15T00:52:48;12.57;;;6.57;;
57087;SDS011;42965;52.846;6.614;2023-04-15T00:55:14;13.40;;;7.40;;
57087;SDS011;42965;52.846;6.614;2023-04-15T00:57:40;10.60;;;6.68;;
57087;SDS011;42965;52.846;6.614;2023-04-15T01:00:07;14.05;;;7.88;;
57087;SDS011;42965;52.846;6.614;2023-04-15T01:02:36;14.30;;;7.32;;
57087;SDS011;42965;52.846;6.614;2023-04-15T01:05:02;13.80;;;7.13;;
57087;SDS011;42965;52.846;6.614;2023-04-15T01:07:29;13.02;;;7.85;;
57087;SDS011;42965;52.846;6.614;2023-04-15T01:09:56;14.02;;;6.93;;
57087;SDS011;42965;52.846;6.614;2023-04-15T01:12:23;14.32;;;8.18;;
57087;SDS011;42965;52.846;6.614;2023-04-15T01:14:52;10.65;;;7.57;;
57087;SDS011;42965;52.846;6.614;2023-04-15T01:17:20;10.48;;;6.70;;
57087;SDS011;42965;52.846;6.614;2023-04-15T01:19:47;12.50;;;7.32;;
57087;SDS011;42965;52.846;6.614;2023-04-15T01:22:13;11.55;;;7.13;;
57087;SDS011;42965;52.846;6.614;2023-04-15T01:24:40;14.48;;;7.68;;
57087;SDS011;42965;52.846;6.614;2023-04-15T01:27:26;10.57;;;7.68;;
57087;SDS011;42965;52.846;6.614;2023-04-15T01:29:52;12.43;;;7.95;;
57087;SDS011;42965;52.846;6.614;2023-04-15T01:32:19;11.00;;;7.70;;
57087;SDS011;42965;52.846;6.614;2023-04-15T01:35:03;11.52;;;7.85;;
57087;SDS011;42965;52.846;6.614;2023-04-15T01:37:46;12.10;;;7.45;;
57087;SDS011;42965;52.846;6.614;2023-04-15T01:40:15;13.40;;;8.43;;
57087;SDS011;42965;52.846;6.614;2023-04-15T01:42:45;11.70;;;8.93;;
57087;SDS011;42965;52.846;6.614;2023-04-15T01:45:14;11.10;;;8.63;;
57087;SDS011;42965;52.846;6.614;2023-04-15T01:47:41;14.35;;;8.90;;
57087;SDS011;42965;52.846;6.614;2023-04-15T01:50:09;12.27;;;7.75;;
57087;SDS011;42965;52.846;6.614;2023-04-15T01:52:35;14.30;;;9.98;;
57087;SDS011;42965;52.846;6.614;2023-04-15T01:55:02;13.02;;;8.55;;
57087;SDS011;42965;52.846;6.614;2023-04-15T01:57:29;13.27;;;9.23;;
57087;SDS011;42965;52.846;6.614;2023-04-15T01:59:55;15.60;;;10.68;;
57087;SDS011;42965;52.846;6.614;2023-04-15T02:02:21;13.73;;;9.18;;
57087;SDS011;42965;52.846;6.614;2023-04-15T02:04:47;12.98;;;9.02;;
57087;SDS011;42965;52.846;6.614;2023-04-15T02:07:15;17.40;;;10.02;;
57087;SDS011;42965;52.846;6.614;2023-04-15T02:09:42;12.93;;;9.45;;
57087;SDS011;42965;52.846;6.614;2023-04-15T02:12:09;16.10;;;10.15;;
57087;SDS011;42965;52.846;6.614;2023-04-15T02:14:35;14.13;;;9.88;;
57087;SDS011;42965;52.846;6.614;2023-04-15T02:17:01;12.55;;;9.52;;
57087;SDS011;42965;52.846;6.614;2023-04-15T02:19:32;15.32;;;9.90;;
57087;SDS011;42965;52.846;6.614;2023-04-15T02:22:02;14.20;;;9.75;;
57087;SDS011;42965;52.846;6.614;2023-04-15T02:24:29;12.18;;;9.88;;
57087;SDS011;42965;52.846;6.614;2023-04-15T02:26:55;17.88;;;11.88;;
57087;SDS011;42965;52.846;6.614;2023-04-15T02:29:22;15.43;;;10.93;;
57087;SDS011;42965;52.846;6.614;2023-04-15T02:31:51;15.55;;;10.68;;
57087;SDS011;42965;52.846;6.614;2023-04-15T02:34:17;13.60;;;11.00;;
57087;SDS011;42965;52.846;6.614;2023-04-15T02:36:47;15.20;;;12.00;;
57087;SDS011;42965;52.846;6.614;2023-04-15T02:39:14;15.93;;;10.95;;
57087;SDS011;42965;52.846;6.614;2023-04-15T02:41:44;17.35;;;12.38;;
57087;SDS011;42965;52.846;6.614;2023-04-15T02:44:16;16.17;;;12.95;;
57087;SDS011;42965;52.846;6.614;2023-04-15T02:46:48;15.85;;;11.60;;
57087;SDS011;42965;52.846;6.614;2023-04-15T02:49:17;19.00;;;13.13;;
57087;SDS011;42965;52.846;6.614;2023-04-15T02:51:44;19.30;;;12.73;;
57087;SDS011;42965;52.846;6.614;2023-04-15T02:54:15;18.48;;;12.60;;
57087;SDS011;42965;52.846;6.614;2023-04-15T02:56:45;19.83;;;12.13;;
57087;SDS011;42965;52.846;6.614;2023-04-15T02:59:12;17.83;;;13.32;;
57087;SDS011;42965;52.846;6.614;2023-04-15T03:01:38;18.55;;;13.15;;
57087;SDS011;42965;52.846;6.614;2023-04-15T03:04:05;18.10;;;13.52;;
57087;SDS011;42965;52.846;6.614;2023-04-15T03:06:33;18.02;;;13.48;;
57087;SDS011;42965;52.846;6.614;2023-04-15T03:09:00;21.55;;;13.38;;
57087;SDS011;42965;52.846;6.614;2023-04-15T03:11:30;18.92;;;14.00;;
57087;SDS011;42965;52.846;6.614;2023-04-15T03:13:58;18.73;;;13.48;;
57087;SDS011;42965;52.846;6.614;2023-04-15T03:16:29;17.75;;;13.32;;
57087;SDS011;42965;52.846;6.614;2023-04-15T03:18:57;16.27;;;12.20;;
57087;SDS011;42965;52.846;6.614;2023-04-15T03:21:24;19.33;;;13.05;;
57087;SDS011;42965;52.846;6.614;2023-04-15T03:23:52;19.08;;;15.18;;
57087;SDS011;42965;52.846;6.614;2023-04-15T03:26:28;21.25;;;13.65;;
57087;SDS011;42965;52.846;6.614;2023-04-15T03:28:59;17.63;;;14.68;;
57087;SDS011;42965;52.846;6.614;2023-04-15T03:31:25;17.13;;;13.43;;
57087;SDS011;42965;52.846;6.614;2023-04-15T03:33:52;19.08;;;14.95;;
57087;SDS011;42965;52.846;6.614;2023-04-15T03:36:18;17.35;;;14.45;;
57087;SDS011;42965;52.846;6.614;2023-04-15T03:38:44;20.35;;;15.15;;
57087;SDS011;42965;52.846;6.614;2023-04-15T03:41:10;19.10;;;13.48;;
57087;SDS011;42965;52.846;6.614;2023-04-15T03:43:37;16.58;;;13.35;;
57087;SDS011;42965;52.846;6.614;2023-04-15T03:46:03;20.02;;;14.85;;
57087;SDS011;42965;52.846;6.614;2023-04-15T03:48:30;17.02;;;13.50;;
57087;SDS011;42965;52.846;6.614;2023-04-15T03:50:57;19.42;;;13.93;;
57087;SDS011;42965;52.846;6.614;2023-04-15T03:53:23;17.48;;;13.50;;
57087;SDS011;42965;52.846;6.614;2023-04-15T03:55:49;16.80;;;14.15;;
57087;SDS011;42965;52.846;6.614;2023-04-15T03:58:16;20.02;;;14.77;;
57087;SDS011;42965;52.846;6.614;2023-04-15T04:00:43;19.55;;;14.75;;
57087;SDS011;42965;52.846;6.614;2023-04-15T04:03:09;19.40;;;15.15;;
57087;SDS011;42965;52.846;6.614;2023-04-15T04:05:36;19.08;;;14.95;;
57087;SDS011;42965;52.846;6.614;2023-04-15T04:08:03;16.95;;;13.88;;
57087;SDS011;42965;52.846;6.614;2023-04-15T04:10:30;17.70;;;13.98;;
57087;SDS011;42965;52.846;6.614;2023-04-15T04:12:56;20.15;;;14.25;;
57087;SDS011;42965;52.846;6.614;2023-04-15T04:15:25;19.65;;;14.65;;
57087;SDS011;42965;52.846;6.614;2023-04-15T04:17:52;18.65;;;15.05;;
57087;SDS011;42965;52.846;6.614;2023-04-15T04:20:18;18.58;;;14.63;;
57087;SDS011;42965;52.846;6.614;2023-04-15T04:22:44;19.40;;;15.60;;
57087;SDS011;42965;52.846;6.614;2023-04-15T04:25:10;17.42;;;14.30;;
57087;SDS011;42965;52.846;6.614;2023-04-15T04:27:36;17.27;;;14.38;;
57087;SDS011;42965;52.846;6.614;2023-04-15T04:30:03;19.23;;;14.38;;
57087;SDS011;42965;52.846;6.614;2023-04-15T04:32:31;19.63;;;14.82;;
57087;SDS011;42965;52.846;6.614;2023-04-15T04:34:57;19.52;;;15.63;;
57087;SDS011;42965;52.846;6.614;2023-04-15T04:37:23;18.75;;;15.30;;
57087;SDS011;42965;52.846;6.614;2023-04-15T04:39:50;18.25;;;14.90;;
57087;SDS011;42965;52.846;6.614;2023-04-15T04:42:16;18.50;;;15.15;;
57087;SDS011;42965;52.846;6.614;2023-04-15T04:44:42;21.05;;;15.52;;
57087;SDS011;42965;52.846;6.614;2023-04-15T04:47:08;18.02;;;14.52;;
57087;SDS011;42965;52.846;6.614;2023-04-15T04:49:35;22.58;;;16.08;;
57087;SDS011;42965;52.846;6.614;2023-04-15T04:52:02;19.50;;;14.10;;
57087;SDS011;42965;52.846;6.614;2023-04-15T04:54:28;22.73;;;15.77;;
57087;SDS011;42965;52.846;6.614;2023-04-15T04:56:55;18.08;;;14.30;;
57087;SDS011;42965;52.846;6.614;2023-04-15T04:59:22;19.63;;;14.98;;
57087;SDS011;42965;52.846;6.614;2023-04-15T05:01:49;21.27;;;15.57;;
57087;SDS011;42965;52.846;6.614;2023-04-15T05:04:16;19.23;;;14.40;;
57087;SDS011;42965;52.846;6.614;2023-04-15T05:06:43;23.13;;;15.63;;
57087;SDS011;42965;52.846;6.614;2023-04-15T05:09:09;19.15;;;16.05;;
57087;SDS011;42965;52.846;6.614;2023-04-15T05:11:35;22.50;;;16.88;;
57087;SDS011;42965;52.846;6.614;2023-04-15T05:14:01;20.42;;;15.85;;
57087;SDS011;42965;52.846;6.614;2023-04-15T05:16:28;21.42;;;16.33;;
57087;SDS011;42965;52.846;6.614;2023-04-15T05:18:54;24.58;;;16.35;;
57087;SDS011;42965;52.846;6.614;2023-04-15T05:21:20;21.50;;;16.30;;
57087;SDS011;42965;52.846;6.614;2023-04-15T05:23:47;22.52;;;18.13;;
57087;SDS011;42965;52.846;6.614;2023-04-15T05:26:14;21.42;;;16.88;;
57087;SDS011;42965;52.846;6.614;2023-04-15T05:28:40;23.33;;;17.52;;
57087;SDS011;42965;52.846;6.614;2023-04-15T05:31:07;23.92;;;18.25;;
57087;SDS011;42965;52.846;6.614;2023-04-15T05:33:33;23.33;;;17.63;;
57087;SDS011;42965;52.846;6.614;2023-04-15T05:35:59;23.25;;;17.05;;
57087;SDS011;42965;52.846;6.614;2023-04-15T05:38:26;25.15;;;18.65;;
57087;SDS011;42965;52.846;6.614;2023-04-15T05:40:52;23.02;;;17.67;;
57087;SDS011;42965;52.846;6.614;2023-04-15T05:43:18;25.73;;;18.85;;
57087;SDS011;42965;52.846;6.614;2023-04-15T05:45:45;28.05;;;18.77;;
57087;SDS011;42965;52.846;6.614;2023-04-15T05:48:12;23.38;;;18.02;;
57087;SDS011;42965;52.846;6.614;2023-04-15T05:50:41;25.00;;;18.67;;
57087;SDS011;42965;52.846;6.614;2023-04-15T05:53:08;23.50;;;17.58;;
57087;SDS011;42965;52.846;6.614;2023-04-15T05:55:35;25.80;;;17.45;;
57087;SDS011;42965;52.846;6.614;2023-04-15T05:58:01;21.23;;;16.63;;
57087;SDS011;42965;52.846;6.614;2023-04-15T06:00:28;23.27;;;16.67;;
57087;SDS011;42965;52.846;6.614;2023-04-15T06:02:55;21.15;;;17.20;;
57087;SDS011;42965;52.846;6.614;2023-04-15T06:05:22;22.83;;;17.20;;
57087;SDS011;42965;52.846;6.614;2023-04-15T06:07:49;21.27;;;17.85;;
57087;SDS011;42965;52.846;6.614;2023-04-15T06:10:16;21.60;;;16.75;;
57087;SDS011;42965;52.846;6.614;2023-04-15T06:12:42;22.92;;;18.20;;
57087;SDS011;42965;52.846;6.614;2023-04-15T06:15:09;23.42;;;18.17;;
57087;SDS011;42965;52.846;6.614;2023-04-15T06:17:35;20.17;;;16.98;;
57087;SDS011;42965;52.846;6.614;2023-04-15T06:20:02;22.90;;;18.65;;
57087;SDS011;42965;52.846;6.614;2023-04-15T06:22:29;21.02;;;17.55;;
57087;SDS011;42965;52.846;6.614;2023-04-15T06:24:55;23.15;;;17.08;;
57087;SDS011;42965;52.846;6.614;2023-04-15T06:27:21;19.45;;;16.02;;
57087;SDS011;42965;52.846;6.614;2023-04-15T06:29:48;19.88;;;16.35;;
57087;SDS011;42965;52.846;6.614;2023-04-15T06:32:14;21.75;;;16.83;;
57087;SDS011;42965;52.846;6.614;2023-04-15T06:34:40;19.58;;;17.02;;
57087;SDS011;42965;52.846;6.614;2023-04-15T06:37:06;22.95;;;18.25;;
57087;SDS011;42965;52.846;6.614;2023-04-15T06:39:35;22.77;;;17.42;;
57087;SDS011;42965;52.846;6.614;2023-04-15T06:42:02;23.13;;;18.30;;
57087;SDS011;42965;52.846;6.614;2023-04-15T06:44:29;20.88;;;17.45;;
57087;SDS011;42965;52.846;6.614;2023-04-15T06:46:55;21.75;;;17.55;;
57087;SDS011;42965;52.846;6.614;2023-04-15T06:49:21;20.45;;;17.17;;
57087;SDS011;42965;52.846;6.614;2023-04-15T06:51:48;26.77;;;22.08;;
57087;SDS011;42965;52.846;6.614;2023-04-15T06:54:14;20.60;;;16.30;;
57087;SDS011;42965;52.846;6.614;2023-04-15T06:56:41;19.70;;;16.67;;
57087;SDS011;42965;52.846;6.614;2023-04-15T06:59:07;22.42;;;17.88;;
57087;SDS011;42965;52.846;6.614;2023-04-15T07:01:34;22.48;;;17.98;;
57087;SDS011;42965;52.846;6.614;2023-04-15T07:04:00;21.20;;;18.10;;
57087;SDS011;42965;52.846;6.614;2023-04-15T07:06:26;25.40;;;20.67;;
57087;SDS011;42965;52.846;6.614;2023-04-15T07:08:53;21.80;;;17.73;;
57087;SDS011;42965;52.846;6.614;2023-04-15T07:11:20;23.42;;;19.42;;
57087;SDS011;42965;52.846;6.614;2023-04-15T07:13:46;22.48;;;18.90;;
57087;SDS011;42965;52.846;6.614;2023-04-15T07:16:12;23.02;;;18.35;;
57087;SDS011;42965;52.846;6.614;2023-04-15T07:18:39;37.40;;;30.17;;
57087;SDS011;42965;52.846;6.614;2023-04-15T07:21:05;17.80;;;14.82;;
57087;SDS011;42965;52.846;6.614;2023-04-15T07:23:31;19.05;;;15.02;;
57087;SDS011;42965;52.846;6.614;2023-04-15T07:25:58;21.05;;;17.73;;
57087;SDS011;42965;52.846;6.614;2023-04-15T07:28:27;20.10;;;16.67;;
57087;SDS011;42965;52.846;6.614;2023-04-15T07:30:54;16.52;;;13.98;;
57087;SDS011;42965;52.846;6.614;2023-04-15T07:33:23;19.92;;;17.40;;
57087;SDS011;42965;52.846;6.614;2023-04-15T07:35:49;26.50;;;20.90;;
57087;SDS011;42965;52.846;6.614;2023-04-15T07:38:15;16.15;;;14.25;;
57087;SDS011;42965;52.846;6.614;2023-04-15T07:40:42;19.92;;;15.07;;
57087;SDS011;42965;52.846;6.614;2023-04-15T07:43:09;15.65;;;13.10;;
57087;SDS011;42965;52.846;6.614;2023-04-15T07:45:35;22.92;;;16.73;;
57087;SDS011;42965;52.846;6.614;2023-04-15T07:48:01;16.00;;;13.23;;
57087;SDS011;42965;52.846;6.614;2023-04-15T07:50:27;16.15;;;12.93;;
57087;SDS011;42965;52.846;6.614;2023-04-15T07:52:54;15.18;;;11.65;;
57087;SDS011;42965;52.846;6.614;2023-04-15T07:55:21;13.65;;;10.98;;
57087;SDS011;42965;52.846;6.614;2023-04-15T07:57:48;18.08;;;15.77;;
57087;SDS011;42965;52.846;6.614;2023-04-15T08:00:14;18.90;;;15.65;;
57087;SDS011;42965;52.846;6.614;2023-04-15T08:02:41;13.50;;;10.63;;
57087;SDS011;42965;52.846;6.614;2023-04-15T08:05:08;17.02;;;11.30;;
57087;SDS011;42965;52.846;6.614;2023-04-15T08:07:36;12.80;;;9.60;;
57087;SDS011;42965;52.846;6.614;2023-04-15T08:10:04;12.45;;;9.65;;
57087;SDS011;42965;52.846;6.614;2023-04-15T08:12:31;15.20;;;12.70;;
57087;SDS011;42965;52.846;6.614;2023-04-15T08:14:57;13.15;;;10.63;;
57087;SDS011;42965;52.846;6.614;2023-04-15T08:17:23;16.70;;;13.02;;
57087;SDS011;42965;52.846;6.614;2023-04-15T08:19:50;12.70;;;9.57;;
57087;SDS011;42965;52.846;6.614;2023-04-15T08:22:16;10.95;;;8.43;;
57087;SDS011;42965;52.846;6.614;2023-04-15T08:24:43;13.25;;;10.13;;
57087;SDS011;42965;52.846;6.614;2023-04-15T08:27:09;10.65;;;8.45;;
57087;SDS011;42965;52.846;6.614;2023-04-15T08:29:35;10.25;;;8.05;;
57087;SDS011;42965;52.846;6.614;2023-04-15T08:32:02;11.40;;;9.30;;
57087;SDS011;42965;52.846;6.614;2023-04-15T08:34:28;9.43;;;7.28;;
57087;SDS011;42965;52.846;6.614;2023-04-15T08:36:55;10.00;;;7.63;;
57087;SDS011;42965;52.846;6.614;2023-04-15T08:39:21;8.52;;;6.50;;
57087;SDS011;42965;52.846;6.614;2023-04-15T08:41:52;11.52;;;8.35;;
57087;SDS011;42965;52.846;6.614;2023-04-15T08:44:34;12.63;;;8.65;;
57087;SDS011;42965;52.846;6.614;2023-04-15T08:49:32;11.90;;;5.97;;
57087;SDS011;42965;52.846;6.614;2023-04-15T08:52:03;10.52;;;5.35;;
57087;SDS011;42965;52.846;6.614;2023-04-15T08:54:32;8.50;;;5.88;;
57087;SDS011;42965;52.846;6.614;2023-04-15T08:56:59;11.63;;;8.10;;
57087;SDS011;42965;52.846;6.614;2023-04-15T08:59:28;9.98;;;6.57;;
57087;SDS011;42965;52.846;6.614;2023-04-15T09:01:56;12.60;;;8.07;;
57087;SDS011;42965;52.846;6.614;2023-04-15T09:04:23;14.50;;;9.60;;
57087;SDS011;42965;52.846;6.614;2023-04-15T09:06:49;13.23;;;10.50;;
57087;SDS011;42965;52.846;6.614;2023-04-15T09:09:17;13.10;;;8.07;;
57087;SDS011;42965;52.846;6.614;2023-04-15T09:11:43;10.32;;;5.90;;
57087;SDS011;42965;52.846;6.614;2023-04-15T09:14:09;7.28;;;5.72;;
57087;SDS011;42965;52.846;6.614;2023-04-15T09:19:29;7.22;;;5.72;;
57087;SDS011;42965;52.846;6.614;2023-04-15T09:21:57;15.27;;;10.23;;
57087;SDS011;42965;52.846;6.614;2023-04-15T09:24:24;13.50;;;10.05;;
57087;SDS011;42965;52.846;6.614;2023-04-15T09:26:58;17.20;;;11.52;;
57087;SDS011;42965;52.846;6.614;2023-04-15T09:29:25;15.98;;;10.57;;
57087;SDS011;42965;52.846;6.614;2023-04-15T09:31:51;9.32;;;5.75;;
57087;SDS011;42965;52.846;6.614;2023-04-15T09:34:18;14.75;;;10.75;;
57087;SDS011;42965;52.846;6.614;2023-04-15T09:39:11;14.73;;;9.43;;
57087;SDS011;42965;52.846;6.614;2023-04-15T09:41:37;13.40;;;10.25;;
57087;SDS011;42965;52.846;6.614;2023-04-15T09:44:04;9.52;;;6.15;;
57087;SDS011;42965;52.846;6.614;2023-04-15T09:46:43;7.55;;;4.38;;
57087;SDS011;42965;52.846;6.614;2023-04-15T09:49:10;6.25;;;3.95;;
57087;SDS011;42965;52.846;6.614;2023-04-15T09:51:37;7.60;;;4.28;;
57087;SDS011;42965;52.846;6.614;2023-04-15T09:54:04;12.38;;;9.32;;
57087;SDS011;42965;52.846;6.614;2023-04-15T09:56:34;7.60;;;6.07;;
57087;SDS011;42965;52.846;6.614;2023-04-15T09:59:07;5.55;;;3.70;;
57087;SDS011;42965;52.846;6.614;2023-04-15T10:01:34;9.80;;;6.75;;
57087;SDS011;42965;52.846;6.614;2023-04-15T10:04:02;7.70;;;4.65;;
57087;SDS011;42965;52.846;6.614;2023-04-15T10:06:29;9.18;;;6.43;;
57087;SDS011;42965;52.846;6.614;2023-04-15T10:08:58;6.45;;;4.22;;
57087;SDS011;42965;52.846;6.614;2023-04-15T10:11:28;6.25;;;4.18;;
57087;SDS011;42965;52.846;6.614;2023-04-15T10:13:56;7.38;;;5.15;;
57087;SDS011;42965;52.846;6.614;2023-04-15T10:16:24;5.57;;;3.13;;
57087;SDS011;42965;52.846;6.614;2023-04-15T10:18:54;4.57;;;2.00;;
57087;SDS011;42965;52.846;6.614;2023-04-15T10:21:21;8.98;;;6.43;;
57087;SDS011;42965;52.846;6.614;2023-04-15T10:23:48;6.82;;;4.28;;
57087;SDS011;42965;52.846;6.614;2023-04-15T10:26:15;4.95;;;3.00;;
57087;SDS011;42965;52.846;6.614;2023-04-15T10:28:45;4.22;;;2.58;;
57087;SDS011;42965;52.846;6.614;2023-04-15T10:31:13;7.22;;;3.95;;
57087;SDS011;42965;52.846;6.614;2023-04-15T10:33:40;9.00;;;6.35;;
57087;SDS011;42965;52.846;6.614;2023-04-15T10:36:08;7.75;;;2.95;;
57087;SDS011;42965;52.846;6.614;2023-04-15T10:38:39;5.85;;;3.47;;
57087;SDS011;42965;52.846;6.614;2023-04-15T10:44:04;5.20;;;3.55;;
57087;SDS011;42965;52.846;6.614;2023-04-15T10:46:38;4.90;;;2.67;;
57087;SDS011;42965;52.846;6.614;2023-04-15T10:49:15;3.88;;;2.30;;
57087;SDS011;42965;52.846;6.614;2023-04-15T10:51:50;3.25;;;1.92;;
57087;SDS011;42965;52.846;6.614;2023-04-15T10:59:30;6.18;;;3.53;;
57087;SDS011;42965;52.846;6.614;2023-04-15T11:02:01;7.50;;;4.82;;
57087;SDS011;42965;52.846;6.614;2023-04-15T11:07:59;10.40;;;6.05;;
57087;SDS011;42965;52.846;6.614;2023-04-15T11:12:46;5.20;;;2.75;;
57087;SDS011;42965;52.846;6.614;2023-04-15T11:15:29;7.40;;;2.95;;
57087;SDS011;42965;52.846;6.614;2023-04-15T11:17:56;9.93;;;6.32;;
57087;SDS011;42965;52.846;6.614;2023-04-15T11:20:34;6.80;;;4.32;;
57087;SDS011;42965;52.846;6.614;2023-04-15T11:23:01;5.85;;;2.92;;
57087;SDS011;42965;52.846;6.614;2023-04-15T11:25:28;5.10;;;2.47;;
57087;SDS011;42965;52.846;6.614;2023-04-15T11:27:58;5.38;;;3.65;;
57087;SDS011;42965;52.846;6.614;2023-04-15T11:30:30;5.78;;;2.38;;
57087;SDS011;42965;52.846;6.614;2023-04-15T11:35:25;7.18;;;4.07;;
57087;SDS011;42965;52.846;6.614;2023-04-15T11:37:51;4.50;;;2.22;;
57087;SDS011;42965;52.846;6.614;2023-04-15T11:40:21;6.47;;;2.47;;
57087;SDS011;42965;52.846;6.614;2023-04-15T11:43:06;10.60;;;4.95;;
57087;SDS011;42965;52.846;6.614;2023-04-15T11:45:33;11.10;;;6.75;;
57087;SDS011;42965;52.846;6.614;2023-04-15T11:48:09;8.13;;;4.72;;
57087;SDS011;42965;52.846;6.614;2023-04-15T11:50:36;11.95;;;6.13;;
57087;SDS011;42965;52.846;6.614;2023-04-15T11:53:07;11.40;;;6.22;;
57087;SDS011;42965;52.846;6.614;2023-04-15T11:55:43;6.85;;;4.53;;
57087;SDS011;42965;52.846;6.614;2023-04-15T11:58:14;9.07;;;4.75;;
57087;SDS011;42965;52.846;6.614;2023-04-15T12:00:53;7.90;;;5.30;;
57087;SDS011;42965;52.846;6.614;2023-04-15T12:03:28;7.93;;;3.75;;
57087;SDS011;42965;52.846;6.614;2023-04-15T12:06:02;8.38;;;3.65;;
57087;SDS011;42965;52.846;6.614;2023-04-15T12:14:04;11.93;;;6.15;;
57087;SDS011;42965;52.846;6.614;2023-04-15T12:16:47;9.90;;;5.90;;
57087;SDS011;42965;52.846;6.614;2023-04-15T12:19:21;11.27;;;4.47;;
57087;SDS011;42965;52.846;6.614;2023-04-15T12:21:49;19.60;;;11.57;;
57087;SDS011;42965;52.846;6.614;2023-04-15T12:24:19;10.80;;;4.93;;
57087;SDS011;42965;52.846;6.614;2023-04-15T12:26:48;9.60;;;3.83;;
57087;SDS011;42965;52.846;6.614;2023-04-15T12:29:25;7.90;;;3.67;;
57087;SDS011;42965;52.846;6.614;2023-04-15T12:31:57;17.95;;;12.13;;
57087;SDS011;42965;52.846;6.614;2023-04-15T12:34:29;10.18;;;5.35;;
57087;SDS011;42965;52.846;6.614;2023-04-15T12:36:57;10.48;;;4.03;;
57087;SDS011;42965;52.846;6.614;2023-04-15T12:39:27;7.65;;;3.15;;
57087;SDS011;42965;52.846;6.614;2023-04-15T12:41:54;8.02;;;3.60;;
57087;SDS011;42965;52.846;6.614;2023-04-15T12:44:23;8.98;;;3.25;;
57087;SDS011;42965;52.846;6.614;2023-04-15T12:46:56;11.20;;;4.93;;
57087;SDS011;42965;52.846;6.614;2023-04-15T12:49:23;9.20;;;2.97;;
57087;SDS011;42965;52.846;6.614;2023-04-15T12:51:54;8.40;;;2.92;;
57087;SDS011;42965;52.846;6.614;2023-04-15T12:54:21;12.63;;;3.08;;
57087;SDS011;42965;52.846;6.614;2023-04-15T12:56:48;6.63;;;2.20;;
57087;SDS011;42965;52.846;6.614;2023-04-15T12:59:15;10.75;;;4.45;;
57087;SDS011;42965;52.846;6.614;2023-04-15T13:01:44;9.23;;;3.75;;
57087;SDS011;42965;52.846;6.614;2023-04-15T13:04:11;8.20;;;2.55;;
57087;SDS011;42965;52.846;6.614;2023-04-15T13:06:37;15.07;;;4.57;;
57087;SDS011;42965;52.846;6.614;2023-04-15T13:09:03;8.80;;;2.97;;
57087;SDS011;42965;52.846;6.614;2023-04-15T13:11:30;10.35;;;3.63;;
57087;SDS011;42965;52.846;6.614;2023-04-15T13:13:59;9.25;;;2.60;;
57087;SDS011;42965;52.846;6.614;2023-04-15T13:16:26;8.23;;;2.10;;
57087;SDS011;42965;52.846;6.614;2023-04-15T13:18:52;8.15;;;2.13;;
57087;SDS011;42965;52.846;6.614;2023-04-15T13:21:19;6.85;;;2.50;;
57087;SDS011;42965;52.846;6.614;2023-04-15T13:23:45;7.35;;;2.03;;
57087;SDS011;42965;52.846;6.614;2023-04-15T13:26:17;5.72;;;2.28;;
57087;SDS011;42965;52.846;6.614;2023-04-15T13:28:44;11.80;;;4.00;;
57087;SDS011;42965;52.846;6.614;2023-04-15T13:31:11;8.18;;;2.92;;
57087;SDS011;42965;52.846;6.614;2023-04-15T13:33:37;10.45;;;3.03;;
57087;SDS011;42965;52.846;6.614;2023-04-15T13:36:03;6.45;;;3.03;;
57087;SDS011;42965;52.846;6.614;2023-04-15T13:38:30;11.98;;;2.88;;
57087;SDS011;42965;52.846;6.614;2023-04-15T13:40:56;11.32;;;4.22;;
57087;SDS011;42965;52.846;6.614;2023-04-15T13:43:22;9.07;;;3.60;;
57087;SDS011;42965;52.846;6.614;2023-04-15T13:45:49;9.65;;;2.92;;
57087;SDS011;42965;52.846;6.614;2023-04-15T13:48:15;10.18;;;2.35;;
57087;SDS011;42965;52.846;6.614;2023-04-15T13:50:44;8.82;;;2.33;;
57087;SDS011;42965;52.846;6.614;2023-04-15T13:53:13;6.68;;;2.45;;
57087;SDS011;42965;52.846;6.614;2023-04-15T13:55:40;8.75;;;2.40;;
57087;SDS011;42965;52.846;6.614;2023-04-15T13:58:07;7.57;;;2.33;;
57087;SDS011;42965;52.846;6.614;2023-04-15T14:00:34;10.10;;;4.25;;
57087;SDS011;42965;52.846;6.614;2023-04-15T14:03:01;6.15;;;2.08;;
57087;SDS011;42965;52.846;6.614;2023-04-15T14:05:27;11.55;;;7.20;;
57087;SDS011;42965;52.846;6.614;2023-04-15T14:07:53;7.95;;;2.47;;
57087;SDS011;42965;52.846;6.614;2023-04-15T14:10:20;5.38;;;2.25;;
57087;SDS011;42965;52.846;6.614;2023-04-15T14:12:49;8.02;;;2.72;;
57087;SDS011;42965;52.846;6.614;2023-04-15T14:15:15;7.50;;;3.92;;
57087;SDS011;42965;52.846;6.614;2023-04-15T14:17:44;7.82;;;3.30;;
57087;SDS011;42965;52.846;6.614;2023-04-15T14:20:13;8.52;;;2.88;;
57087;SDS011;42965;52.846;6.614;2023-04-15T14:22:39;7.80;;;2.90;;
57087;SDS011;42965;52.846;6.614;2023-04-15T14:25:07;10.65;;;2.00;;
57087;SDS011;42965;52.846;6.614;2023-04-15T14:27:33;6.97;;;2.58;;
57087;SDS011;42965;52.846;6.614;2023-04-15T14:30:00;6.63;;;2.03;;
57087;SDS011;42965;52.846;6.614;2023-04-15T14:32:26;4.65;;;1.85;;
57087;SDS011;42965;52.846;6.614;2023-04-15T14:34:52;8.65;;;2.00;;
57087;SDS011;42965;52.846;6.614;2023-04-15T14:37:18;7.45;;;2.65;;
57087;SDS011;42965;52.846;6.614;2023-04-15T14:39:45;9.77;;;2.42;;
57087;SDS011;42965;52.846;6.614;2023-04-15T14:42:12;7.20;;;3.63;;
57087;SDS011;42965;52.846;6.614;2023-04-15T14:44:38;8.30;;;2.00;;
57087;SDS011;42965;52.846;6.614;2023-04-15T14:47:04;11.38;;;2.30;;
57087;SDS011;42965;52.846;6.614;2023-04-15T14:49:31;17.83;;;8.20;;
57087;SDS011;42965;52.846;6.614;2023-04-15T14:51:57;9.50;;;3.97;;
57087;SDS011;42965;52.846;6.614;2023-04-15T14:54:23;6.85;;;3.05;;
57087;SDS011;42965;52.846;6.614;2023-04-15T14:56:49;21.23;;;13.40;;
57087;SDS011;42965;52.846;6.614;2023-04-15T14:59:15;8.60;;;2.28;;
57087;SDS011;42965;52.846;6.614;2023-04-15T15:01:44;8.60;;;2.97;;
57087;SDS011;42965;52.846;6.614;2023-04-15T15:04:12;11.00;;;7.70;;
57087;SDS011;42965;52.846;6.614;2023-04-15T15:06:38;7.93;;;2.75;;